Time;durP1;ratioP1;P1;durP2;ratioP2;P2;SDS_P1;SDS_P2;PMS_P1;PMS_P2;Temp;Humidity;BMP_temperature;BMP_pressure;BME280_temperature;BME280_humidity;BME280_pressure;Samples;Min_cycle;Max_cycle;Signal;HPM_P1;HPM_P2
2021/05/28 00:00:44;;;;;;;3.13;2.70;;;13.10;52.90;;;;;;5115649;27;38081;-78
2021/05/28 00:03:14;;;;;;;3.70;2.67;;;13.10;52.80;;;;;;5107458;27;37827;-78
2021/05/28 00:05:42;;;;;;;4.10;2.60;;;13.10;52.40;;;;;;5091764;28;38212;-78
2021/05/28 00:08:09;;;;;;;3.10;2.60;;;13.10;52.30;;;;;;5094282;28;37855;-79
2021/05/28 00:10:36;;;;;;;3.77;2.20;;;13.10;52.30;;;;;;5090699;27;37138;-77
2021/05/28 00:13:03;;;;;;;2.60;2.40;;;13.10;52.30;;;;;;5110418;27;37184;-78
2021/05/28 00:15:33;;;;;;;2.83;2.17;;;13.10;52.50;;;;;;5089759;27;38454;-79
2021/05/28 00:18:00;;;;;;;2.60;2.40;;;13.10;52.60;;;;;;5091988;28;39099;-78
2021/05/28 00:20:27;;;;;;;2.07;1.90;;;13.10;53.00;;;;;;5110951;27;39328;-78
2021/05/28 00:22:55;;;;;;;2.30;2.10;;;13.10;53.00;;;;;;5118526;27;37113;-78
2021/05/28 00:25:22;;;;;;;3.00;2.70;;;13.20;53.10;;;;;;5108942;28;39566;-77
2021/05/28 00:27:49;;;;;;;2.70;2.50;;;13.20;52.90;;;;;;5104785;27;39538;-78
2021/05/28 00:30:23;;;;;;;3.43;2.50;;;13.20;52.60;;;;;;5088193;28;38125;-79
2021/05/28 00:32:50;;;;;;;4.33;2.80;;;13.10;52.30;;;;;;5110293;27;37879;-78
2021/05/28 00:35:17;;;;;;;3.70;3.17;;;13.10;52.30;;;;;;5111785;27;39398;-79
2021/05/28 00:37:45;;;;;;;3.63;3.10;;;13.00;52.20;;;;;;5116324;27;39060;-79
2021/05/28 00:40:14;;;;;;;4.40;4.00;;;12.90;52.30;;;;;;5109852;27;40112;-79
2021/05/28 00:42:41;;;;;;;4.43;3.20;;;12.80;52.50;;;;;;5110804;27;37437;-79
2021/05/28 00:45:09;;;;;;;5.57;3.57;;;12.80;52.70;;;;;;5120690;27;39676;-78
2021/05/28 00:47:37;;;;;;;9.47;3.27;;;12.70;53.00;;;;;;5108776;27;39934;-79
2021/05/28 00:50:05;;;;;;;3.43;3.13;;;12.70;53.50;;;;;;5113433;27;39085;-79
2021/05/28 00:52:32;;;;;;;5.10;3.57;;;12.70;53.60;;;;;;5116854;27;37258;-79
2021/05/28 00:55:00;;;;;;;3.27;2.97;;;12.70;53.70;;;;;;5108418;27;39932;-78
2021/05/28 00:57:30;;;;;;;3.20;2.90;;;12.70;53.90;;;;;;5091869;28;37738;-78
2021/05/28 00:59:59;;;;;;;4.30;3.10;;;12.60;53.80;;;;;;5089790;28;37377;-79
2021/05/28 01:02:26;;;;;;;3.67;3.37;;;12.60;54.10;;;;;;5087230;28;35296;-79
2021/05/28 01:04:54;;;;;;;3.83;3.10;;;12.60;54.20;;;;;;5106752;27;40706;-79
2021/05/28 01:07:21;;;;;;;4.40;2.70;;;12.60;54.20;;;;;;5109686;27;40046;-79
2021/05/28 01:09:48;;;;;;;3.50;3.20;;;12.50;54.50;;;;;;5113063;27;38272;-78
2021/05/28 01:12:15;;;;;;;8.80;3.87;;;12.50;54.90;;;;;;5093989;28;36614;-78
2021/05/28 01:14:45;;;;;;;3.70;3.40;;;12.50;54.90;;;;;;5105262;28;39670;-78
2021/05/28 01:17:12;;;;;;;7.13;3.50;;;12.60;55.00;;;;;;5092061;28;38065;-78
2021/05/28 01:19:39;;;;;;;3.47;3.17;;;12.60;55.70;;;;;;5114559;27;38701;-78
2021/05/28 01:22:08;;;;;;;3.63;3.10;;;12.60;55.20;;;;;;5114302;27;37175;-78
2021/05/28 01:24:36;;;;;;;3.27;2.97;;;12.60;55.20;;;;;;5122482;27;40494;-79
2021/05/28 01:27:05;;;;;;;3.93;3.47;;;12.60;55.40;;;;;;5095553;28;38716;-78
2021/05/28 01:29:32;;;;;;;3.60;3.30;;;12.60;55.30;;;;;;5091147;28;35900;-78
2021/05/28 01:31:59;;;;;;;3.60;3.30;;;12.60;55.90;;;;;;5106248;27;37218;-79
2021/05/28 01:34:26;;;;;;;4.57;3.10;;;12.60;55.30;;;;;;5108500;27;39662;-79
2021/05/28 01:36:53;;;;;;;3.50;3.00;;;12.60;55.30;;;;;;5109667;27;39997;-79
2021/05/28 01:39:21;;;;;;;4.23;3.60;;;12.60;55.50;;;;;;5118739;27;38337;-79
2021/05/28 01:41:48;;;;;;;4.23;3.80;;;12.60;55.40;;;;;;5114156;28;37955;-79
2021/05/28 01:44:17;;;;;;;3.87;3.47;;;12.60;55.50;;;;;;5106081;28;40473;-79
2021/05/28 01:46:44;;;;;;;3.80;3.50;;;12.60;55.50;;;;;;5109174;27;37676;-79
2021/05/28 01:49:11;;;;;;;4.80;4.40;;;12.60;55.40;;;;;;5107239;27;38205;-78
2021/05/28 01:51:38;;;;;;;5.83;4.40;;;12.60;56.10;;;;;;5113467;28;37846;-78
2021/05/28 01:54:05;;;;;;;4.73;4.33;;;12.60;55.50;;;;;;5105967;28;39822;-80
2021/05/28 01:56:33;;;;;;;5.47;4.47;;;12.60;55.30;;;;;;5117141;27;38903;-79
2021/05/28 01:59:04;;;;;;;7.00;5.40;;;12.60;55.60;;;;;;5119108;28;38443;-81
2021/05/28 02:01:31;;;;;;;5.53;4.40;;;12.60;55.70;;;;;;5104749;28;35765;-81
2021/05/28 02:03:58;;;;;;;5.40;4.20;;;12.60;55.70;;;;;;5117057;28;39908;-80
2021/05/28 02:06:27;;;;;;;6.60;6.00;;;12.60;56.40;;;;;;5111005;27;39551;-80
2021/05/28 02:08:54;;;;;;;5.70;4.93;;;12.60;55.70;;;;;;5101413;27;37373;-80
2021/05/28 02:11:21;;;;;;;5.60;5.10;;;12.60;55.70;;;;;;5112950;27;37203;-80
2021/05/28 02:13:51;;;;;;;5.40;4.93;;;12.60;55.70;;;;;;5114157;28;39750;-80
2021/05/28 02:16:18;;;;;;;5.47;4.97;;;12.60;55.70;;;;;;5091955;28;39220;-80
2021/05/28 02:18:47;;;;;;;6.10;5.50;;;12.50;55.90;;;;;;5112208;27;38635;-80
2021/05/28 02:21:14;;;;;;;6.27;5.30;;;12.50;56.00;;;;;;5090804;28;35786;-81
2021/05/28 02:23:41;;;;;;;6.23;5.57;;;12.50;56.10;;;;;;5099211;28;39607;-80
2021/05/28 02:26:09;;;;;;;7.47;5.77;;;12.50;56.40;;;;;;5104516;28;39059;-80
2021/05/28 02:28:36;;;;;;;5.73;5.17;;;12.50;57.10;;;;;;5109835;27;36093;-80
2021/05/28 02:31:04;;;;;;;6.03;5.43;;;12.50;56.50;;;;;;5100955;27;35968;-81
2021/05/28 02:33:30;;;;;;;5.50;5.00;;;12.50;56.50;;;;;;5112761;27;39819;-81
2021/05/28 02:35:59;;;;;;;5.67;5.17;;;12.50;56.50;;;;;;5111018;28;38361;-81
2021/05/28 02:38:26;;;;;;;4.90;4.50;;;12.50;56.70;;;;;;5106319;27;38379;-79
2021/05/28 02:40:53;;;;;;;5.40;4.90;;;12.50;56.80;;;;;;5111446;28;37194;-79
2021/05/28 02:43:20;;;;;;;6.80;4.60;;;12.50;56.80;;;;;;5114704;28;40669;-79
2021/05/28 02:45:49;;;;;;;9.93;5.33;;;12.50;56.80;;;;;;5111378;27;39389;-79
2021/05/28 02:48:18;;;;;;;6.93;6.23;;;12.60;56.80;;;;;;5112007;27;39162;-79
2021/05/28 02:50:45;;;;;;;5.30;4.80;;;12.60;56.80;;;;;;5091601;28;36877;-80
2021/05/28 02:53:12;;;;;;;5.47;4.60;;;12.60;56.70;;;;;;5108525;27;40375;-79
2021/05/28 02:55:41;;;;;;;5.50;5.00;;;12.60;56.60;;;;;;5091405;28;37854;-79
2021/05/28 02:58:08;;;;;;;5.90;5.00;;;12.60;56.60;;;;;;5111655;27;38534;-80
2021/05/28 03:00:35;;;;;;;5.00;4.60;;;12.70;56.60;;;;;;5122116;27;37121;-80
2021/05/28 03:03:02;;;;;;;5.50;5.00;;;12.70;56.50;;;;;;5104876;28;40401;-79
2021/05/28 03:05:30;;;;;;;8.13;6.27;;;12.70;57.10;;;;;;5113970;27;39959;-80
2021/05/28 03:07:58;;;;;;;5.83;5.23;;;12.70;56.40;;;;;;5111426;27;38221;-80
2021/05/28 03:10:25;;;;;;;6.27;5.47;;;12.70;56.40;;;;;;5112563;27;37220;-80
2021/05/28 03:12:52;;;;;;;6.40;5.30;;;12.70;56.40;;;;;;5080034;28;38254;-80
2021/05/28 03:15:19;;;;;;;7.03;5.77;;;12.70;56.30;;;;;;5091383;28;38779;-80
2021/05/28 03:17:46;;;;;;;5.90;5.30;;;12.70;56.20;;;;;;5092526;28;37530;-79
2021/05/28 03:20:21;;;;;;;5.63;5.10;;;12.70;55.80;;;;;;5112375;27;38025;-79
2021/05/28 03:22:49;;;;;;;5.30;4.80;;;12.70;55.80;;;;;;5105354;27;39381;-80
2021/05/28 03:25:16;;;;;;;6.57;5.23;;;12.70;55.60;;;;;;5109483;27;39784;-80
2021/05/28 03:27:44;;;;;;;6.73;5.50;;;12.70;55.80;;;;;;5084796;28;37049;-80
2021/05/28 03:30:13;;;;;;;8.57;5.03;;;12.70;55.80;;;;;;5101672;28;37249;-80
2021/05/28 03:32:40;;;;;;;6.70;5.50;;;12.70;55.80;;;;;;5088316;28;38706;-79
2021/05/28 03:35:08;;;;;;;5.30;4.80;;;12.70;55.90;;;;;;5112897;28;39927;-79
2021/05/28 03:37:35;;;;;;;6.07;5.30;;;12.70;56.10;;;;;;5092610;28;37005;-79
2021/05/28 03:40:03;;;;;;;5.50;5.00;;;12.70;56.20;;;;;;5107210;27;37959;-79
2021/05/28 03:42:30;;;;;;;5.50;4.93;;;12.60;56.20;;;;;;5109800;28;39980;-79
2021/05/28 03:44:57;;;;;;;6.00;5.40;;;12.70;56.40;;;;;;5115031;27;38958;-79
2021/05/28 03:47:24;;;;;;;6.93;5.47;;;12.70;56.40;;;;;;5109386;27;38787;-79
2021/05/28 03:49:51;;;;;;;7.03;5.73;;;12.70;56.10;;;;;;5102538;28;37816;-80
2021/05/28 03:52:19;;;;;;;6.30;5.70;;;12.70;55.90;;;;;;5098776;28;39341;-79
2021/05/28 03:54:46;;;;;;;6.50;5.83;;;12.70;55.90;;;;;;5105800;27;38948;-80
2021/05/28 03:57:14;;;;;;;7.20;5.40;;;12.70;56.00;;;;;;5099951;27;38319;-80
2021/05/28 03:59:41;;;;;;;6.23;5.63;;;12.70;56.00;;;;;;5088912;28;36504;-80
2021/05/28 04:02:08;;;;;;;5.90;5.37;;;12.70;55.90;;;;;;5110011;27;39873;-80
2021/05/28 04:04:37;;;;;;;5.90;5.30;;;12.70;55.80;;;;;;5084705;28;37894;-80
2021/05/28 04:07:04;;;;;;;6.53;5.93;;;12.80;55.90;;;;;;5097207;28;38410;-80
2021/05/28 04:09:31;;;;;;;6.80;6.07;;;12.70;55.90;;;;;;5089581;28;35786;-80
2021/05/28 04:11:59;;;;;;;7.67;5.80;;;12.70;56.10;;;;;;5085350;28;38271;-79
2021/05/28 04:14:26;;;;;;;6.67;5.77;;;12.70;56.10;;;;;;5106083;27;40068;-80
2021/05/28 04:16:53;;;;;;;6.43;5.43;;;12.80;55.90;;;;;;5110920;27;38751;-80
2021/05/28 04:19:23;;;;;;;6.40;5.40;;;12.70;55.90;;;;;;5110611;27;37006;-80
2021/05/28 04:21:52;;;;;;;6.30;5.70;;;12.70;56.10;;;;;;5108315;28;40362;-80
2021/05/28 04:24:19;;;;;;;6.60;5.90;;;12.70;55.90;;;;;;5110788;27;39191;-80
2021/05/28 04:26:46;;;;;;;8.20;5.90;;;12.70;55.80;;;;;;5092005;28;38300;-80
2021/05/28 04:29:13;;;;;;;6.50;5.30;;;12.80;56.20;;;;;;5085503;28;36197;-80
2021/05/28 04:31:41;;;;;;;7.03;6.30;;;12.90;56.20;;;;;;5108649;28;40536;-80
2021/05/28 04:34:09;;;;;;;6.67;5.97;;;13.00;56.10;;;;;;5095283;28;39373;-80
2021/05/28 04:36:38;;;;;;;6.10;5.30;;;13.10;56.20;;;;;;5107147;27;39591;-80
2021/05/28 04:39:05;;;;;;;6.00;5.27;;;13.30;56.20;;;;;;5108032;28;37714;-81
2021/05/28 04:41:32;;;;;;;7.97;6.00;;;13.40;56.00;;;;;;5090463;28;39506;-80
2021/05/28 04:43:59;;;;;;;6.40;5.53;;;13.70;55.50;;;;;;5089607;28;37706;-80
2021/05/28 04:46:27;;;;;;;7.13;5.47;;;13.90;55.10;;;;;;5109799;27;38453;-80
2021/05/28 04:48:56;;;;;;;7.73;5.13;;;14.10;54.10;;;;;;5094836;27;36679;-81
2021/05/28 04:51:23;;;;;;;6.60;6.00;;;14.30;53.30;;;;;;5112567;28;40489;-81
2021/05/28 04:53:53;;;;;;;6.27;5.67;;;14.30;52.40;;;;;;5113196;27;39180;-81
2021/05/28 04:56:22;;;;;;;6.53;5.80;;;14.30;52.60;;;;;;5106506;27;38298;-80
2021/05/28 04:58:49;;;;;;;6.10;5.50;;;14.20;52.30;;;;;;5107395;27;37635;-80
2021/05/28 05:01:16;;;;;;;5.73;4.80;;;14.20;52.00;;;;;;5088851;28;39405;-80
2021/05/28 05:03:43;;;;;;;7.37;6.67;;;14.20;52.30;;;;;;5110719;28;39142;-80
2021/05/28 05:06:11;;;;;;;8.00;6.23;;;14.20;52.40;;;;;;5114266;27;38329;-80
2021/05/28 05:08:40;;;;;;;6.27;5.60;;;14.30;52.40;;;;;;5112562;28;37414;-81
2021/05/28 05:11:07;;;;;;;12.03;6.67;;;14.30;52.50;;;;;;5085489;28;39462;-80
2021/05/28 05:13:34;;;;;;;6.40;5.63;;;14.40;52.20;;;;;;5114784;27;40009;-81
2021/05/28 05:16:02;;;;;;;7.33;6.60;;;14.60;51.80;;;;;;5077751;28;38346;-80
2021/05/28 05:18:29;;;;;;;10.63;6.00;;;14.80;51.60;;;;;;5069291;28;36333;-80
2021/05/28 05:20:56;;;;;;;9.70;6.17;;;14.90;51.00;;;;;;5072032;28;38635;-79
2021/05/28 05:23:24;;;;;;;9.37;5.90;;;15.10;51.00;;;;;;5086390;28;39172;-80
2021/05/28 05:25:51;;;;;;;5.30;4.30;;;15.30;50.20;;;;;;5092539;28;38314;-79
2021/05/28 05:28:18;;;;;;;5.93;4.77;;;15.50;49.60;;;;;;5066769;28;36039;-79
2021/05/28 05:30:45;;;;;;;5.20;4.03;;;15.60;48.70;;;;;;5097014;28;40060;-80
2021/05/28 05:33:12;;;;;;;6.37;4.67;;;15.70;47.60;;;;;;5093259;28;39944;-80
2021/05/28 05:35:39;;;;;;;5.50;5.00;;;15.90;47.20;;;;;;5090974;28;38641;-80
2021/05/28 05:38:08;;;;;;;6.43;3.77;;;16.40;47.70;;;;;;5065931;28;37322;-81
2021/05/28 05:40:37;;;;;;;6.33;3.93;;;17.50;46.40;;;;;;5083652;28;39154;-81
2021/05/28 05:43:04;;;;;;;4.73;3.00;;;19.60;42.50;;;;;;5072506;28;37984;-81
2021/05/28 05:45:32;;;;;;;4.37;3.43;;;22.10;38.70;;;;;;5079658;28;37504;-82
2021/05/28 05:48:02;;;;;;;4.63;4.00;;;24.50;34.50;;;;;;5093401;28;36806;-81
2021/05/28 05:50:29;;;;;;;3.67;3.20;;;26.90;30.80;;;;;;5083069;28;41020;-82
2021/05/28 05:52:56;;;;;;;6.30;3.53;;;29.00;28.20;;;;;;5089400;28;38860;-82
2021/05/28 05:55:23;;;;;;;6.70;3.60;;;30.80;26.10;;;;;;5096473;28;38436;-82
2021/05/28 05:57:52;;;;;;;4.97;4.10;;;32.30;24.60;;;;;;5088044;28;37518;-82
2021/05/28 06:00:20;;;;;;;5.13;3.47;;;33.40;23.20;;;;;;5092456;28;39618;-82
2021/05/28 06:02:53;;;;;;;7.00;3.20;;;33.50;22.20;;;;;;5090338;28;40284;-82
2021/05/28 06:05:20;;;;;;;5.23;3.40;;;34.00;21.70;;;;;;5072479;28;37122;-82
2021/05/28 06:07:47;;;;;;;3.57;3.23;;;34.50;21.00;;;;;;5074442;28;35881;-82
2021/05/28 06:10:17;;;;;;;6.00;4.03;;;34.80;20.30;;;;;;5074764;28;38499;-82
2021/05/28 06:12:44;;;;;;;4.00;3.67;;;34.50;20.10;;;;;;5091530;28;38310;-82
2021/05/28 06:15:14;;;;;;;5.00;4.43;;;33.80;20.60;;;;;;5087162;28;39529;-82
2021/05/28 06:17:45;;;;;;;6.73;4.03;;;32.00;21.20;;;;;;5111392;27;37029;-82
2021/05/28 06:20:12;;;;;;;3.70;3.40;;;30.60;23.10;;;;;;5112506;27;39182;-82
2021/05/28 06:22:40;;;;;;;6.57;4.53;;;30.00;23.50;;;;;;5096407;27;37834;-82
2021/05/28 06:25:09;;;;;;;7.00;4.43;;;29.60;23.50;;;;;;5094221;28;38745;-82
2021/05/28 06:27:36;;;;;;;4.10;3.67;;;29.00;24.00;;;;;;5096350;27;37389;-82
2021/05/28 06:30:05;;;;;;;9.30;4.57;;;27.70;24.40;;;;;;5117063;27;38768;-82
2021/05/28 06:32:33;;;;;;;4.93;3.80;;;26.60;26.00;;;;;;5106552;27;39007;-82
2021/05/28 06:35:02;;;;;;;4.13;3.70;;;25.60;26.70;;;;;;5110615;27;38199;-82
2021/05/28 06:37:29;;;;;;;5.43;4.10;;;24.80;27.30;;;;;;5109118;27;36052;-81
2021/05/28 06:39:56;;;;;;;4.43;4.03;;;24.20;28.40;;;;;;5093528;27;37998;-82
2021/05/28 06:42:23;;;;;;;4.30;3.50;;;23.70;29.10;;;;;;5108853;27;39847;-83
2021/05/28 06:44:50;;;;;;;8.47;3.70;;;24.10;29.20;;;;;;5092695;27;37214;-83
2021/05/28 06:47:18;;;;;;;4.43;3.90;;;25.70;28.00;;;;;;5099603;27;36572;-83
2021/05/28 06:49:46;;;;;;;5.30;3.63;;;27.10;25.80;;;;;;5088778;28;38482;-84
2021/05/28 06:52:15;;;;;;;4.13;3.73;;;28.20;24.60;;;;;;5087232;27;37697;-83
2021/05/28 06:54:43;;;;;;;5.83;5.23;;;29.00;23.60;;;;;;5108967;27;38178;-82
2021/05/28 06:57:15;;;;;;;11.17;3.33;;;30.30;23.10;;;;;;5105680;27;37538;-83
2021/05/28 06:59:42;;;;;;;3.70;3.40;;;32.30;21.50;;;;;;5110712;27;38497;-82
2021/05/28 07:02:09;;;;;;;4.10;3.03;;;33.60;19.90;;;;;;5109969;27;39489;-82
2021/05/28 07:04:36;;;;;;;6.77;3.80;;;34.00;19.30;;;;;;5105036;27;38407;-80
2021/05/28 07:07:07;;;;;;;4.20;3.50;;;33.60;19.10;;;;;;5109100;27;38106;-80
2021/05/28 07:09:34;;;;;;;6.37;3.70;;;32.70;19.60;;;;;;5101195;28;38029;-80
2021/05/28 07:12:01;;;;;;;3.70;3.40;;;31.40;20.50;;;;;;5118459;27;38999;-80
2021/05/28 07:14:28;;;;;;;4.10;3.70;;;30.50;20.80;;;;;;5091409;28;37667;-78
2021/05/28 07:16:56;;;;;;;6.40;3.70;;;30.20;21.50;;;;;;5088858;28;35959;-77
2021/05/28 07:19:23;;;;;;;4.23;3.80;;;30.10;21.60;;;;;;5099946;28;38546;-77
2021/05/28 07:21:50;;;;;;;3.97;3.43;;;29.90;22.00;;;;;;5103319;28;37910;-78
2021/05/28 07:24:18;;;;;;;4.50;4.10;;;30.10;21.70;;;;;;5105503;27;39329;-78
2021/05/28 07:26:45;;;;;;;6.30;3.73;;;29.80;21.20;;;;;;5110026;28;38111;-80
2021/05/28 07:29:16;;;;;;;4.80;3.87;;;29.20;22.20;;;;;;5111550;28;39932;-79
2021/05/28 07:31:43;;;;;;;5.20;3.60;;;28.70;22.40;;;;;;5100720;27;38982;-79
2021/05/28 07:34:10;;;;;;;6.13;3.60;;;28.30;22.40;;;;;;5095580;28;37572;-78
2021/05/28 07:36:37;;;;;;;4.57;4.20;;;28.30;23.00;;;;;;5087664;28;37024;-78
2021/05/28 07:39:08;;;;;;;4.50;4.10;;;28.30;23.00;;;;;;5088258;28;38319;-78
2021/05/28 07:41:38;;;;;;;4.27;3.97;;;28.30;22.90;;;;;;5070760;28;37837;-79
2021/05/28 07:44:06;;;;;;;7.10;5.47;;;28.10;22.80;;;;;;5097810;27;38334;-79
2021/05/28 07:46:39;;;;;;;7.47;4.30;;;27.90;23.40;;;;;;5091110;27;36661;-78
2021/05/28 07:49:07;;;;;;;17.77;4.20;;;27.40;23.80;;;;;;5083038;28;38554;-78
2021/05/28 07:51:35;;;;;;;3.77;3.23;;;27.10;24.70;;;;;;5093953;28;38628;-78
2021/05/28 07:54:02;;;;;;;4.20;3.33;;;28.30;23.80;;;;;;5112032;27;39289;-79
2021/05/28 07:56:29;;;;;;;4.17;3.07;;;31.00;22.00;;;;;;5108834;28;37109;-81
2021/05/28 07:58:57;;;;;;;6.57;3.53;;;33.70;19.30;;;;;;5103777;27;39786;-81
2021/05/28 08:01:28;;;;;;;5.00;3.77;;;35.90;17.60;;;;;;5085878;28;38031;-81
2021/05/28 08:03:56;;;;;;;6.30;3.70;;;37.30;16.70;;;;;;5108064;28;38562;-80
2021/05/28 08:06:23;;;;;;;4.00;3.70;;;38.50;15.40;;;;;;5108684;28;37903;-80
2021/05/28 08:08:50;;;;;;;3.73;3.40;;;38.80;15.20;;;;;;5104884;27;40550;-81
2021/05/28 08:11:17;;;;;;;3.63;3.33;;;39.50;14.20;;;;;;5110777;27;39053;-81
2021/05/28 08:13:44;;;;;;;6.23;3.37;;;40.10;13.80;;;;;;5099735;28;38200;-80
2021/05/28 08:16:12;;;;;;;3.63;3.30;;;40.30;14.00;;;;;;5107023;28;38169;-81
2021/05/28 08:18:44;;;;;;;4.03;3.63;;;40.70;14.30;;;;;;5086172;27;39818;-81
2021/05/28 08:21:13;;;;;;;4.10;3.70;;;41.00;12.50;;;;;;5109115;27;39503;-81
2021/05/28 08:23:41;;;;;;;4.20;3.17;;;40.50;12.70;;;;;;5109443;28;39211;-81
2021/05/28 08:26:08;;;;;;;3.77;3.27;;;39.20;13.00;;;;;;5113637;28;37809;-81
2021/05/28 08:28:36;;;;;;;6.13;3.50;;;37.00;13.70;;;;;;5093659;28;39025;-80
2021/05/28 08:31:03;;;;;;;3.37;3.07;;;35.10;15.20;;;;;;5098624;28;38167;-80
2021/05/28 08:33:32;;;;;;;5.13;3.43;;;34.10;15.80;;;;;;5111641;28;38531;-80
2021/05/28 08:35:59;;;;;;;5.00;3.17;;;32.60;16.60;;;;;;5109029;27;37487;-80
2021/05/28 08:38:26;;;;;;;5.93;3.27;;;31.40;18.00;;;;;;5097239;28;39354;-79
2021/05/28 08:40:53;;;;;;;8.57;3.93;;;30.00;18.30;;;;;;5114607;28;39395;-80
2021/05/28 08:43:20;;;;;;;5.73;3.33;;;28.80;20.10;;;;;;5114642;27;38395;-79
2021/05/28 08:45:49;;;;;;;4.20;3.80;;;28.00;21.20;;;;;;5090909;28;36281;-80
2021/05/28 08:48:18;;;;;;;4.40;3.77;;;25.80;22.80;;;;;;5106868;27;40557;-79
2021/05/28 08:50:49;;;;;;;5.63;3.50;;;24.70;24.50;;;;;;5113376;27;39193;-79
2021/05/28 08:53:17;;;;;;;4.57;3.83;;;24.60;25.20;;;;;;5087345;28;37206;-79
2021/05/28 08:55:46;;;;;;;3.97;3.03;;;24.80;25.50;;;;;;5093334;28;36851;-79
2021/05/28 08:58:15;;;;;;;4.63;4.00;;;25.20;25.20;;;;;;5092601;28;36852;-79
2021/05/28 09:00:44;;;;;;;4.30;3.70;;;25.40;24.90;;;;;;5113487;27;39627;-79
2021/05/28 09:03:23;;;;;;;6.53;3.40;;;25.80;24.60;;;;;;5110472;28;38545;-79
2021/05/28 09:05:53;;;;;;;6.10;3.40;;;26.60;24.00;;;;;;5095536;28;38607;-80
2021/05/28 09:08:29;;;;;;;6.87;3.50;;;27.30;22.90;;;;;;5107953;27;40465;-79
2021/05/28 09:11:05;;;;;;;5.43;3.70;;;27.60;22.10;;;;;;5104724;27;38995;-79
2021/05/28 09:13:33;;;;;;;5.67;3.67;;;28.30;21.90;;;;;;5103441;27;39156;-79
2021/05/28 09:16:10;;;;;;;6.57;3.57;;;28.70;21.40;;;;;;5115466;27;36910;-79
2021/05/28 09:18:44;;;;;;;4.47;3.40;;;29.60;20.90;;;;;;5111635;27;39248;-80
2021/05/28 09:21:18;;;;;;;4.17;3.77;;;30.00;19.60;;;;;;5120744;27;39747;-80
2021/05/28 09:23:47;;;;;;;4.77;3.50;;;29.40;20.10;;;;;;5112522;27;38982;-80
2021/05/28 09:26:14;;;;;;;7.33;3.10;;;28.70;20.20;;;;;;5093081;27;36888;-79
2021/05/28 09:28:44;;;;;;;6.13;3.33;;;27.90;21.60;;;;;;5103292;27;41293;-79
2021/05/28 09:31:14;;;;;;;5.63;3.43;;;27.00;22.50;;;;;;5097619;28;37522;-80
2021/05/28 09:34:06;;;;;;;4.83;2.80;;;26.60;23.10;;;;;;5099006;27;37869;-81
2021/05/28 09:36:54;;;;;;;5.13;3.33;;;26.60;23.10;;;;;;5090115;27;35743;-80
2021/05/28 09:39:39;;;;;;;3.00;2.70;;;27.20;22.00;;;;;;5099745;27;39457;-80
2021/05/28 09:42:06;;;;;;;3.50;3.20;;;28.00;21.10;;;;;;5117586;27;38335;-80
2021/05/28 09:44:33;;;;;;;6.70;2.90;;;28.50;21.30;;;;;;5097099;27;37329;-80
2021/05/28 09:47:06;;;;;;;3.93;3.00;;;28.80;21.20;;;;;;5122614;27;37376;-80
2021/05/28 09:49:37;;;;;;;4.63;2.60;;;29.00;20.40;;;;;;5102442;27;38940;-81
2021/05/28 09:52:14;;;;;;;3.17;2.37;;;28.80;20.70;;;;;;5114094;27;37814;-80
2021/05/28 09:54:55;;;;;;;4.43;2.77;;;28.40;20.30;;;;;;5127555;27;38444;-80
2021/05/28 09:57:30;;;;;;;5.17;2.47;;;27.60;20.70;;;;;;5120313;27;37888;-80
2021/05/28 09:59:58;;;;;;;4.10;2.30;;;27.40;21.30;;;;;;5119351;27;39750;-80
2021/05/28 10:02:29;;;;;;;2.63;2.10;;;27.40;21.60;;;;;;5123298;27;39752;-80
2021/05/28 10:04:58;;;;;;;3.00;2.30;;;27.60;20.90;;;;;;5091933;28;38073;-80
2021/05/28 10:07:27;;;;;;;3.57;1.90;;;27.50;20.40;;;;;;5097140;28;37719;-79
2021/05/28 10:09:56;;;;;;;9.63;3.20;;;27.10;21.30;;;;;;5083540;28;39898;-79
2021/05/28 10:12:23;;;;;;;3.57;2.20;;;27.00;21.60;;;;;;5117685;27;38665;-80
2021/05/28 10:14:51;;;;;;;4.10;2.70;;;28.20;20.90;;;;;;5118208;27;38732;-80
2021/05/28 10:17:19;;;;;;;3.73;2.33;;;29.90;19.00;;;;;;5093700;28;36055;-80
2021/05/28 10:19:47;;;;;;;3.53;2.60;;;31.40;17.80;;;;;;5102997;27;38498;-80
2021/05/28 10:22:17;;;;;;;1.97;1.73;;;31.40;16.80;;;;;;5097828;27;38282;-80
2021/05/28 10:24:45;;;;;;;2.80;2.30;;;31.00;17.90;;;;;;5123433;27;39370;-80
2021/05/28 10:27:21;;;;;;;4.60;3.30;;;30.70;18.10;;;;;;5114193;27;37525;-80
2021/05/28 10:29:50;;;;;;;3.53;2.80;;;30.30;17.90;;;;;;5113813;27;39738;-80
2021/05/28 10:32:18;;;;;;;5.83;2.63;;;29.60;18.70;;;;;;5121873;27;38981;-79
2021/05/28 10:35:10;;;;;;;2.80;2.10;;;29.10;19.10;;;;;;5129054;27;38020;-79
2021/05/28 10:37:38;;;;;;;3.80;2.40;;;28.50;20.10;;;;;;5111216;27;36916;-81
2021/05/28 10:40:25;;;;;;;2.83;2.40;;;27.90;20.40;;;;;;5097037;27;38973;-81
2021/05/28 10:43:03;;;;;;;4.50;1.90;;;27.60;20.20;;;;;;5102918;28;38702;-80
2021/05/28 10:45:55;;;;;;;5.27;2.20;;;27.10;20.40;;;;;;5111884;27;38378;-79
2021/05/28 10:49:01;;;;;;;2.67;2.30;;;26.80;20.90;;;;;;5112176;27;36338;-80
2021/05/28 10:52:07;;;;;;;3.60;2.33;;;26.30;20.50;;;;;;5118366;27;40245;-81
2021/05/28 10:54:37;;;;;;;4.90;2.23;;;25.90;21.40;;;;;;5110583;27;38538;-80
2021/05/28 10:57:43;;;;;;;4.27;2.40;;;26.00;21.40;;;;;;5123247;27;37862;-80
2021/05/28 11:00:20;;;;;;;2.03;1.77;;;26.50;21.40;;;;;;5100788;28;36015;-80
2021/05/28 11:02:54;;;;;;;2.30;2.10;;;26.50;20.30;;;;;;5113981;27;39641;-78
2021/05/28 11:05:49;;;;;;;3.10;2.10;;;25.90;20.90;;;;;;5112916;27;39515;-78
2021/05/28 11:08:41;;;;;;;2.60;2.40;;;25.80;21.90;;;;;;5104261;27;37200;-80
2021/05/28 11:11:09;;;;;;;3.90;2.40;;;25.40;22.30;;;;;;5108818;27;37168;-79
2021/05/28 11:13:57;;;;;;;2.47;2.07;;;25.30;22.60;;;;;;5113230;27;39476;-81
2021/05/28 11:16:25;;;;;;;7.10;2.47;;;25.40;22.30;;;;;;5114535;27;39072;-80
2021/05/28 11:18:55;;;;;;;9.23;2.60;;;25.30;22.60;;;;;;5110430;27;39062;-80
2021/05/28 11:21:24;;;;;;;2.53;2.07;;;25.60;22.50;;;;;;5117929;27;36930;-80
2021/05/28 11:23:53;;;;;;;3.73;2.03;;;25.90;21.90;;;;;;5125474;27;40398;-80
2021/05/28 11:26:25;;;;;;;5.20;2.57;;;26.40;22.10;;;;;;5117932;27;40042;-81
2021/05/28 11:28:57;;;;;;;4.53;2.40;;;26.90;21.00;;;;;;5111465;27;38769;-80
2021/05/28 11:31:25;;;;;;;3.10;2.47;;;27.30;20.60;;;;;;5115837;27;36108;-80
2021/05/28 11:33:58;;;;;;;7.97;3.20;;;27.70;20.50;;;;;;5121904;27;39293;-80
2021/05/28 11:36:45;;;;;;;4.03;2.23;;;27.80;19.80;;;;;;5096599;27;38994;-81
2021/05/28 11:39:24;;;;;;;3.47;2.17;;;28.10;20.30;;;;;;5090308;27;37033;-79
2021/05/28 11:42:01;;;;;;;5.17;2.70;;;28.20;20.20;;;;;;5114007;27;20554;-78
2021/05/28 11:44:31;;;;;;;2.30;2.03;;;27.80;20.50;;;;;;5107826;27;39951;-80
2021/05/28 11:47:02;;;;;;;2.80;2.50;;;27.60;20.20;;;;;;5110012;27;39890;-80
2021/05/28 11:49:29;;;;;;;3.50;2.20;;;27.30;20.00;;;;;;5102640;28;37220;-81
2021/05/28 11:52:05;;;;;;;2.30;2.10;;;26.80;20.20;;;;;;5113311;27;37178;-81
2021/05/28 11:54:35;;;;;;;5.73;2.57;;;26.60;20.40;;;;;;5090335;28;39773;-80
2021/05/28 11:57:05;;;;;;;2.73;2.43;;;26.50;20.60;;;;;;5107817;27;40706;-80
2021/05/28 11:59:51;;;;;;;2.90;2.10;;;26.30;19.90;;;;;;5110996;27;38466;-80
2021/05/28 12:02:44;;;;;;;2.73;2.17;;;26.00;20.70;;;;;;5109200;27;38151;-80
2021/05/28 12:05:31;;;;;;;2.37;2.17;;;25.70;21.10;;;;;;5087572;27;39613;-79
2021/05/28 12:08:01;;;;;;;12.57;4.07;;;25.80;21.30;;;;;;5083762;28;38847;-79
2021/05/28 12:10:29;;;;;;;4.00;3.50;;;26.00;21.70;;;;;;5087156;28;37574;-80
2021/05/28 12:13:01;;;;;;;5.00;2.90;;;26.10;21.00;;;;;;5124639;27;37121;-80
2021/05/28 12:15:32;;;;;;;4.83;2.77;;;25.90;20.90;;;;;;5106698;27;39235;-80
2021/05/28 12:18:01;;;;;;;8.00;2.37;;;25.80;21.70;;;;;;5098758;28;38890;-81
2021/05/28 12:20:31;;;;;;;4.13;2.10;;;25.60;20.60;;;;;;5085805;28;37433;-81
2021/05/28 12:23:08;;;;;;;3.17;2.10;;;25.50;21.90;;;;;;5112186;27;36787;-82
2021/05/28 12:26:15;;;;;;;2.93;2.47;;;25.50;21.80;;;;;;5094415;28;38912;-81
2021/05/28 12:28:45;;;;;;;2.60;2.40;;;25.00;20.90;;;;;;5106682;28;39300;-81
2021/05/28 12:31:20;;;;;;;5.20;2.40;;;24.10;21.00;;;;;;5109458;28;38412;-81
2021/05/28 12:42:35;;;;;;;;;;;;;;;;;;;;;
2021/05/28 12:53:37;;;;;;;3.43;1.90;;;23.00;21.90;;;;;;4901765;29;39943;-80
2021/05/28 12:56:06;;;;;;;9.00;2.20;;;23.20;22.60;;;;;;5005564;28;38743;-80
2021/05/28 12:58:33;;;;;;;11.07;3.20;;;23.40;23.00;;;;;;5072285;28;38179;-81
2021/05/28 13:01:05;;;;;;;2.77;1.70;;;23.50;23.00;;;;;;5093528;28;36157;-81
2021/05/28 13:03:43;;;;;;;2.10;1.80;;;23.60;22.30;;;;;;5111224;28;39391;-81
2021/05/28 13:06:42;;;;;;;2.80;1.80;;;23.50;21.90;;;;;;5094795;27;38158;-81
2021/05/28 13:09:15;;;;;;;6.33;2.00;;;23.50;22.40;;;;;;5115350;27;38484;-80
2021/05/28 13:12:00;;;;;;;6.40;2.00;;;23.70;22.50;;;;;;5109081;27;37079;-81
2021/05/28 13:14:31;;;;;;;2.30;2.00;;;23.70;22.20;;;;;;5091983;28;38417;-81
2021/05/28 13:17:16;;;;;;;2.00;1.67;;;23.50;21.70;;;;;;5105724;27;39085;-82
2021/05/28 13:19:45;;;;;;;2.00;1.90;;;23.10;21.60;;;;;;5100540;27;37889;-81